createdAt,value
2017-11-24T00:00:22.379Z,29.5
2017-11-24T00:01:22.140Z,29.5
2017-11-24T00:02:22.183Z,29.5
2017-11-24T00:03:25.494Z,29.5
2017-11-24T00:04:22.277Z,29.5
2017-11-24T00:05:22.302Z,29.5
2017-11-24T00:06:25.614Z,29.5
2017-11-24T00:07:25.321Z,29.5
2017-11-24T00:08:25.734Z,29.5
2017-11-24T00:09:25.428Z,29.5
2017-11-24T00:10:25.809Z,29.5
2017-11-24T00:11:22.875Z,29.5
2017-11-24T00:12:22.701Z,29.5
2017-11-24T00:13:23.049Z,29.5
2017-11-24T00:14:23.132Z,29.5
2017-11-24T00:15:23.187Z,29.5
2017-11-24T00:16:26.186Z,29.5
2017-11-24T00:17:25.837Z,29.5
2017-11-24T00:18:23.113Z,29.5
2017-11-24T00:19:23.386Z,29.5
2017-11-24T00:20:23.111Z,29.5
2017-11-24T00:21:26.056Z,29.5
2017-11-24T00:22:26.157Z,29.5
2017-11-24T00:23:23.646Z,29.5
2017-11-24T00:24:23.337Z,29.5
2017-11-24T00:25:23.714Z,29.5
2017-11-24T00:26:23.779Z,29.5
2017-11-24T00:27:26.709Z,29.5
2017-11-24T00:28:23.791Z,29.5
2017-11-24T00:29:23.828Z,29.5
2017-11-24T00:30:26.849Z,29.5
2017-11-24T00:31:23.651Z,29.5
2017-11-24T00:32:26.575Z,29.5
2017-11-24T00:33:23.775Z,29.5
2017-11-24T00:34:26.704Z,29.5
2017-11-24T00:35:26.768Z,29.5
2017-11-24T00:36:27.183Z,29.5
2017-11-24T00:37:26.843Z,29.5
2017-11-24T00:38:26.946Z,29.5
2017-11-24T00:39:26.992Z,29.4
2017-11-24T00:40:27.026Z,29.5
2017-11-24T00:41:24.506Z,29.5
2017-11-24T00:42:27.139Z,29.5
2017-11-24T00:43:24.609Z,29.4
2017-11-24T00:44:24.694Z,29.5
2017-11-24T00:45:27.320Z,29.5
2017-11-24T00:46:27.760Z,29.5
2017-11-24T00:47:27.416Z,29.5
2017-11-24T00:48:24.909Z,29.5
2017-11-24T00:49:24.652Z,29.5
2017-11-24T00:50:27.624Z,29.5
2017-11-24T00:51:25.027Z,29.5
2017-11-24T00:52:24.753Z,29.4
2017-11-24T00:53:24.846Z,29.5
2017-11-24T00:54:24.904Z,29.4
2017-11-24T00:55:27.856Z,29.4
2017-11-24T00:56:28.237Z,29.4
2017-11-24T00:57:28.297Z,29.4
2017-11-24T00:58:27.925Z,29.4
2017-11-24T00:59:25.428Z,29.4
2017-11-24T01:00:25.206Z,29.4
2017-11-24T01:01:25.248Z,29.4
2017-11-24T01:02:28.602Z,29.4
2017-11-24T01:03:28.575Z,29.4
2017-11-24T01:04:28.220Z,29.5
2017-11-24T01:05:28.347Z,29.4
2017-11-24T01:06:25.788Z,29.5
2017-11-24T01:07:25.913Z,29.5
2017-11-24T01:08:25.961Z,29.4
2017-11-24T01:09:29.041Z,29.4
2017-11-24T01:10:29.133Z,29.4
2017-11-24T01:11:28.816Z,29.4
2017-11-24T01:12:25.997Z,29.4
2017-11-24T01:13:28.989Z,29.4
2017-11-24T01:14:26.397Z,29.4
2017-11-24T01:15:29.663Z,29.4
2017-11-24T01:16:26.392Z,29.4
2017-11-24T01:17:26.456Z,29.4
2017-11-24T01:18:26.523Z,29.4
2017-11-24T01:19:29.483Z,29.4
2017-11-24T01:20:29.235Z,29.4
2017-11-24T01:21:29.282Z,29.4
2017-11-24T01:22:26.703Z,29.4
2017-11-24T01:23:29.648Z,29.4
2017-11-24T01:24:29.696Z,29.4
2017-11-24T01:25:29.736Z,29.4
2017-11-24T01:26:26.852Z,29.4
2017-11-24T01:27:29.850Z,29.4
2017-11-24T01:28:29.891Z,29.4
2017-11-24T01:29:29.689Z,29.4
2017-11-24T01:30:27.083Z,29.4
2017-11-24T01:31:30.098Z,29.4
2017-11-24T01:32:27.239Z,29.4
2017-11-24T01:33:29.854Z,29.4
2017-11-24T01:34:26.987Z,29.4
2017-11-24T01:35:27.364Z,29.4
2017-11-24T01:36:27.424Z,29.4
2017-11-24T01:37:30.425Z,29.4
2017-11-24T01:38:30.482Z,29.4
2017-11-24T01:39:27.364Z,29.4
2017-11-24T01:40:27.382Z,29.4
2017-11-24T01:41:27.693Z,29.4
2017-11-24T01:42:27.806Z,29.4
2017-11-24T01:43:30.521Z,29.4
2017-11-24T01:44:31.128Z,29.4
2017-11-24T01:45:30.848Z,29.4
2017-11-24T01:46:30.965Z,29.4
2017-11-24T01:47:27.767Z,29.4
2017-11-24T01:48:30.958Z,29.4
2017-11-24T01:49:30.725Z,29.4
2017-11-24T01:50:31.099Z,29.4
2017-11-24T01:51:31.146Z,29.4
2017-11-24T01:52:28.288Z,29.4
2017-11-24T01:53:31.253Z,29.4
2017-11-24T01:54:28.405Z,29.4
2017-11-24T01:55:31.063Z,29.4
2017-11-24T01:56:28.475Z,29.4
2017-11-24T01:57:31.142Z,29.4
2017-11-24T01:58:31.221Z,29.4
2017-11-24T01:59:28.668Z,29.4
2017-11-24T02:00:33.297Z,29.4
2017-11-24T02:01:28.428Z,29.4
2017-11-24T02:02:28.683Z,29.4
2017-11-24T02:03:31.740Z,29.4
2017-11-24T02:04:28.848Z,29.4
2017-11-24T02:05:28.874Z,29.4
2017-11-24T02:06:31.832Z,29.4
2017-11-24T02:07:31.594Z,29.4
2017-11-24T02:08:31.965Z,29.4
2017-11-24T02:09:28.794Z,29.4
2017-11-24T02:10:31.671Z,29.4
2017-11-24T02:11:29.102Z,29.4
2017-11-24T02:12:28.916Z,29.4
2017-11-24T02:13:31.819Z,29.4
2017-11-24T02:14:32.225Z,29.4
2017-11-24T02:15:29.099Z,29.4
2017-11-24T02:16:29.392Z,29.4
2017-11-24T02:17:32.423Z,29.3
2017-11-24T02:18:29.176Z,29.4
2017-11-24T02:19:32.134Z,29.4
2017-11-24T02:20:29.574Z,29.4
2017-11-24T02:21:29.393Z,29.4
2017-11-24T02:22:29.678Z,29.3
2017-11-24T02:23:29.479Z,29.4
2017-11-24T02:24:32.397Z,29.4
2017-11-24T02:25:32.429Z,29.4
2017-11-24T02:26:32.417Z,29.4
2017-11-24T02:27:29.841Z,29.4
2017-11-24T02:28:29.651Z,29.4
2017-11-24T02:29:32.852Z,29.4
2017-11-24T02:30:32.943Z,29.4
2017-11-24T02:31:32.678Z,29.3
2017-11-24T02:32:29.830Z,29.4
2017-11-24T02:33:29.923Z,29.4
2017-11-24T02:34:33.164Z,29.4
2017-11-24T02:35:32.894Z,29.4
2017-11-24T02:36:32.904Z,29.4
2017-11-24T02:37:33.285Z,29.4
2017-11-24T02:38:30.433Z,29.3
2017-11-24T02:39:30.161Z,29.3
2017-11-24T02:40:30.186Z,29.3
2017-11-24T02:41:30.497Z,29.3
2017-11-24T02:42:33.130Z,29.3
2017-11-24T02:43:30.525Z,29.3
2017-11-24T02:44:33.165Z,29.3
2017-11-24T02:45:30.345Z,29.3
2017-11-24T02:46:30.391Z,29.3
2017-11-24T02:47:30.434Z,29.3
2017-11-24T02:48:33.653Z,29.3
2017-11-24T02:49:30.741Z,29.3
2017-11-24T02:50:30.468Z,29.3
2017-11-24T02:51:30.787Z,29.3
2017-11-24T02:52:33.389Z,29.3
2017-11-24T02:53:30.520Z,29.3
2017-11-24T02:54:33.479Z,29.3
2017-11-24T02:55:30.991Z,29.3
2017-11-24T02:56:31.070Z,29.3
2017-11-24T02:57:33.804Z,29.3
2017-11-24T02:58:31.171Z,29.3
2017-11-24T02:59:31.174Z,29.3
2017-11-24T03:00:31.181Z,29.3
2017-11-24T03:01:33.796Z,29.3
2017-11-24T03:02:33.831Z,29.3
2017-11-24T03:03:31.009Z,29.3
2017-11-24T03:04:31.318Z,29.3
2017-11-24T03:05:31.313Z,29.3
2017-11-24T03:06:34.343Z,29.3
2017-11-24T03:07:31.204Z,29.3
2017-11-24T03:08:31.516Z,29.3
2017-11-24T03:09:31.544Z,29.3
2017-11-24T03:10:31.626Z,29.3
2017-11-24T03:11:34.593Z,29.3
2017-11-24T03:12:31.406Z,29.3
2017-11-24T03:13:31.764Z,29.3
2017-11-24T03:14:34.680Z,29.3
2017-11-24T03:15:31.822Z,29.3
2017-11-24T03:16:31.511Z,29.3
2017-11-24T03:17:31.619Z,29.3
2017-11-24T03:18:31.923Z,29.3
2017-11-24T03:19:31.752Z,29.3
2017-11-24T03:20:32.076Z,29.3
2017-11-24T03:21:31.743Z,29.3
2017-11-24T03:22:32.154Z,29.3
2017-11-24T03:23:34.757Z,29.3
2017-11-24T03:24:34.847Z,29.3
2017-11-24T03:25:31.970Z,29.3
2017-11-24T03:26:35.273Z,29.3
2017-11-24T03:27:35.020Z,29.3
2017-11-24T03:28:32.181Z,29.3
2017-11-24T03:29:32.530Z,29.3
2017-11-24T03:30:35.232Z,29.2
2017-11-24T03:31:35.578Z,29.3
2017-11-24T03:32:35.357Z,29.3
2017-11-24T03:33:35.409Z,29.3
2017-11-24T03:34:32.574Z,29.3
2017-11-24T03:35:32.892Z,29.3
2017-11-24T03:36:35.523Z,29.3
2017-11-24T03:37:32.674Z,29.3
2017-11-24T03:38:35.956Z,29.3
2017-11-24T03:39:36.020Z,29.3
2017-11-24T03:40:32.854Z,29.3
2017-11-24T03:41:36.192Z,29.3
2017-11-24T03:42:35.922Z,29.3
2017-11-24T03:43:35.979Z,29.3
2017-11-24T03:44:33.437Z,29.3
2017-11-24T03:45:33.240Z,29.3
2017-11-24T03:46:33.270Z,29.2
2017-11-24T03:47:33.351Z,29.2
2017-11-24T03:48:33.662Z,29.3
2017-11-24T03:49:36.289Z,29.3
2017-11-24T03:50:36.670Z,29.3
2017-11-24T03:51:33.799Z,29.3
2017-11-24T03:52:33.602Z,29.3
2017-11-24T03:53:33.930Z,29.3
2017-11-24T03:54:36.551Z,29.3
2017-11-24T03:55:33.974Z,29.3
2017-11-24T03:56:33.979Z,29.3
2017-11-24T03:57:36.601Z,29.2
2017-11-24T03:58:34.072Z,29.3
2017-11-24T03:59:34.096Z,29.3
2017-11-24T04:00:36.768Z,29.3
2017-11-24T04:01:36.861Z,29.3
2017-11-24T04:02:34.291Z,29.3
2017-11-24T04:03:34.097Z,29.3
2017-11-24T04:04:37.398Z,29.3
2017-11-24T04:05:37.424Z,29.3
2017-11-24T04:06:37.213Z,29.3
2017-11-24T04:07:37.175Z,29.3
2017-11-24T04:08:34.322Z,29.3
2017-11-24T04:09:37.592Z,29.3
2017-11-24T04:10:34.650Z,29.2
2017-11-24T04:11:34.750Z,29.3
2017-11-24T04:12:34.741Z,29.3
2017-11-24T04:13:34.623Z,29.3
2017-11-24T04:14:34.646Z,29.2
2017-11-24T04:15:34.952Z,29.3
2017-11-24T04:16:34.929Z,29.3
2017-11-24T04:17:34.709Z,29.3
2017-11-24T04:18:37.694Z,29.2
2017-11-24T04:19:37.665Z,29.3
2017-11-24T04:20:34.850Z,29.2
2017-11-24T04:21:38.000Z,29.2
2017-11-24T04:22:37.754Z,29.2
2017-11-24T04:23:37.801Z,29.2
2017-11-24T04:24:35.182Z,29.2
2017-11-24T04:25:34.973Z,29.2
2017-11-24T04:26:38.306Z,29.2
2017-11-24T04:27:38.306Z,29.2
2017-11-24T04:28:35.192Z,29.2
2017-11-24T04:29:35.197Z,29.3
2017-11-24T04:30:38.536Z,29.3
2017-11-24T04:31:35.396Z,29.2
2017-11-24T04:32:35.988Z,29.2
2017-11-24T04:33:35.781Z,29.2
2017-11-24T04:34:38.480Z,29.2
2017-11-24T04:35:38.871Z,29.2
2017-11-24T04:36:38.945Z,29.2
2017-11-24T04:37:36.043Z,29.2
2017-11-24T04:38:39.020Z,29.2
2017-11-24T04:39:39.121Z,29.2
2017-11-24T04:40:38.799Z,29.2
2017-11-24T04:41:38.815Z,29.2
2017-11-24T04:42:38.899Z,29.2
2017-11-24T04:43:38.913Z,29.2
2017-11-24T04:44:36.075Z,29.2
2017-11-24T04:45:36.168Z,29.2
2017-11-24T04:46:39.439Z,29.2
2017-11-24T04:47:39.159Z,29.2
2017-11-24T04:48:36.635Z,29.2
2017-11-24T04:49:39.254Z,29.2
2017-11-24T04:50:39.657Z,29.2
2017-11-24T04:51:36.778Z,29.2
2017-11-24T04:52:36.910Z,29.2
2017-11-24T04:53:39.902Z,29.2
2017-11-24T04:54:36.982Z,29.2
2017-11-24T04:55:36.797Z,29.2
2017-11-24T04:56:37.104Z,29.2
2017-11-24T04:57:37.107Z,29.2
2017-11-24T04:58:36.911Z,29.2
2017-11-24T04:59:37.177Z,29.2
2017-11-24T05:00:39.864Z,29.2
2017-11-24T05:01:40.264Z,29.2
2017-11-24T05:02:37.378Z,29.2
2017-11-24T05:03:40.377Z,29.2
2017-11-24T05:04:37.517Z,29.2
2017-11-24T05:05:40.536Z,29.2
2017-11-24T05:06:37.357Z,29.2
2017-11-24T05:07:40.638Z,29.2
2017-11-24T05:08:37.439Z,29.2
2017-11-24T05:09:40.384Z,29.2
2017-11-24T05:10:40.794Z,29.2
2017-11-24T05:11:37.533Z,29.2
2017-11-24T05:12:40.456Z,29.2
2017-11-24T05:13:40.509Z,29.2
2017-11-24T05:14:37.976Z,29.2
2017-11-24T05:15:40.978Z,29.2
2017-11-24T05:16:40.991Z,29.2
2017-11-24T05:17:40.696Z,29.2
2017-11-24T05:18:40.721Z,29.2
2017-11-24T05:19:41.060Z,29.2
2017-11-24T05:20:41.176Z,29.2
2017-11-24T05:21:41.155Z,29.2
2017-11-24T05:22:38.030Z,29.2
2017-11-24T05:23:40.922Z,29.2
2017-11-24T05:24:40.970Z,29.2
2017-11-24T05:25:41.386Z,29.2
2017-11-24T05:26:41.476Z,29.2
2017-11-24T05:27:38.251Z,29.2
2017-11-24T05:28:41.512Z,29.1
2017-11-24T05:29:38.323Z,29.1
2017-11-24T05:30:38.380Z,29.1
2017-11-24T05:33:58.055Z,29
2017-11-24T05:35:00.908Z,29
2017-11-24T05:35:57.947Z,29
2017-11-24T05:37:00.944Z,29
2017-11-24T05:37:57.780Z,28.9
2017-11-24T05:38:57.764Z,28.9
2017-11-24T05:40:01.038Z,28.9
2017-11-24T05:41:00.828Z,28.9
2017-11-24T05:41:58.025Z,28.9
2017-11-24T05:43:00.979Z,28.9
2017-11-24T05:43:58.226Z,28.9
2017-11-24T05:45:00.958Z,28.9
2017-11-24T05:46:01.327Z,28.9
2017-11-24T05:47:01.013Z,28.9
2017-11-24T05:47:58.212Z,28.9
2017-11-24T05:49:01.559Z,28.9
2017-11-24T05:50:01.125Z,28.9
2017-11-24T05:51:01.544Z,28.9
2017-11-24T05:52:01.613Z,28.9
2017-11-24T05:53:01.333Z,28.9
2017-11-24T05:54:01.732Z,28.9
2017-11-24T05:55:01.856Z,29
2017-11-24T05:55:58.880Z,29
2017-11-24T05:57:01.953Z,29
2017-11-24T05:58:01.578Z,29
2017-11-24T05:58:58.994Z,29
2017-11-24T06:00:01.682Z,29
2017-11-24T06:00:58.887Z,29
2017-11-24T06:02:01.865Z,29
2017-11-24T06:02:58.916Z,29
2017-11-24T06:03:59.040Z,29
2017-11-24T06:04:58.999Z,29
2017-11-24T06:05:59.097Z,29.1
2017-11-24T06:06:59.414Z,29.1
2017-11-24T06:07:59.426Z,29
2017-11-24T06:09:02.407Z,29.1
2017-11-24T06:09:59.596Z,29.1
2017-11-24T06:11:02.119Z,29.1
2017-11-24T06:12:02.482Z,29.1
2017-11-24T06:12:59.375Z,29.1
2017-11-24T06:14:02.404Z,29.1
2017-11-24T06:14:59.755Z,29.1
2017-11-24T06:15:59.482Z,29.1
2017-11-24T06:17:02.738Z,29.1
2017-11-24T06:17:59.854Z,29.1
2017-11-24T06:18:59.928Z,29.1
2017-11-24T06:19:59.893Z,29.1
2017-11-24T06:21:02.549Z,29.1
2017-11-24T06:21:59.922Z,29.1
2017-11-24T06:23:02.503Z,29.1
2017-11-24T06:23:59.679Z,29.1
2017-11-24T06:24:59.715Z,29.1
2017-11-24T06:25:59.809Z,29.1
2017-11-24T06:26:59.780Z,29.1
2017-11-24T06:28:00.120Z,29.1
2017-11-24T06:29:00.192Z,29.1
2017-11-24T06:30:03.084Z,29
2017-11-24T06:31:02.897Z,28.6
2017-11-24T06:32:00.121Z,28.4
2017-11-24T06:33:00.399Z,28.1
2017-11-24T06:34:00.405Z,27.8
2017-11-24T06:35:03.362Z,27.6
2017-11-24T06:36:03.383Z,27.3
2017-11-24T06:37:00.427Z,27.1
2017-11-24T06:38:03.441Z,27
2017-11-24T06:39:00.343Z,27.1
2017-11-24T06:40:03.356Z,27.2
2017-11-24T06:41:03.595Z,27.4
2017-11-24T06:42:03.303Z,27.5
2017-11-24T06:43:03.297Z,27.6
2017-11-24T06:44:03.370Z,27.8
2017-11-24T06:45:03.425Z,27.9
2017-11-24T06:46:03.853Z,28
2017-11-24T06:47:03.504Z,28.1
2017-11-24T06:48:03.947Z,28.2
2017-11-24T06:49:00.681Z,28.3
2017-11-24T06:50:01.001Z,28.4
2017-11-24T06:51:04.058Z,28.5
2017-11-24T06:52:01.133Z,28.6
2017-11-24T06:53:03.793Z,28.6
2017-11-24T06:54:03.854Z,28.7
2017-11-24T06:55:03.960Z,28.8
2017-11-24T06:56:01.442Z,28.8
2017-11-24T06:57:01.201Z,28.8
2017-11-24T06:58:01.237Z,28.9
2017-11-24T06:59:04.211Z,28.9
2017-11-24T07:00:01.650Z,28.9
2017-11-24T07:01:01.416Z,28.9
2017-11-24T07:02:01.637Z,29
2017-11-24T07:03:01.389Z,29
2017-11-24T07:04:04.329Z,29
2017-11-24T07:05:04.687Z,29
2017-11-24T07:06:04.355Z,29.1
2017-11-24T07:07:04.789Z,29
2017-11-24T07:08:04.889Z,29.1
2017-11-24T07:09:01.943Z,29.1
2017-11-24T07:10:05.028Z,29.2
2017-11-24T07:11:01.865Z,29.2
2017-11-24T07:12:01.920Z,29.2
2017-11-24T07:13:05.257Z,29.2
2017-11-24T07:14:02.935Z,29.2
2017-11-24T07:15:05.332Z,29.3
2017-11-24T07:16:02.507Z,29.3
2017-11-24T07:17:05.112Z,29.3
2017-11-24T07:18:05.273Z,29.3
2017-11-24T07:19:02.322Z,29.4
2017-11-24T07:20:05.592Z,29.3
2017-11-24T07:21:06.486Z,29
2017-11-24T07:22:05.940Z,28.7
2017-11-24T07:23:02.578Z,28.4
2017-11-24T07:24:05.572Z,28.2
2017-11-24T07:25:02.675Z,28
2017-11-24T07:26:02.673Z,27.7
2017-11-24T07:27:05.646Z,27.5
2017-11-24T07:28:06.775Z,27.4
2017-11-24T07:29:05.748Z,27.2
2017-11-24T07:30:03.218Z,27.1
2017-11-24T07:31:03.240Z,26.9
2017-11-24T07:32:03.302Z,26.8
2017-11-24T07:33:05.974Z,26.7
2017-11-24T07:34:03.114Z,26.6
2017-11-24T07:35:06.543Z,26.4
2017-11-24T07:36:06.607Z,26.3
2017-11-24T07:37:06.141Z,26.2
2017-11-24T07:38:03.563Z,26
2017-11-24T07:39:03.647Z,25.8
2017-11-24T07:40:03.470Z,25.8
2017-11-24T07:41:04.210Z,25.8
2017-11-24T07:42:03.733Z,25.7
2017-11-24T07:43:06.855Z,25.7
2017-11-24T07:44:03.619Z,25.6
2017-11-24T07:45:03.961Z,25.5
2017-11-24T07:46:07.081Z,25.4
2017-11-24T07:47:03.775Z,25.3
2017-11-24T07:48:03.849Z,25.1
2017-11-24T07:49:03.833Z,24.9
2017-11-24T07:50:04.329Z,24.7
2017-11-24T07:51:04.307Z,24.5
2017-11-24T07:52:04.327Z,24.4
2017-11-24T07:53:07.057Z,24.5
2017-11-24T07:54:04.492Z,24.4
2017-11-24T07:55:07.107Z,24.2
2017-11-24T07:56:07.278Z,24.1
2017-11-24T07:57:07.526Z,24
2017-11-24T07:58:07.342Z,24
2017-11-24T07:59:07.324Z,24
2017-11-24T08:00:04.503Z,24
2017-11-24T08:01:04.923Z,24
2017-11-24T08:02:07.832Z,24
2017-11-24T08:03:05.130Z,24
2017-11-24T08:04:05.009Z,24.1
2017-11-24T08:05:07.761Z,24.1
2017-11-24T08:06:04.826Z,24.1
2017-11-24T08:07:05.200Z,24.2
2017-11-24T08:08:05.165Z,24.3
2017-11-24T08:09:08.126Z,24.4
2017-11-24T08:10:08.284Z,24.4
2017-11-24T08:11:08.400Z,24.4
2017-11-24T08:12:08.021Z,24.5
2017-11-24T08:13:05.530Z,24.5
2017-11-24T08:14:05.320Z,24.6
2017-11-24T08:15:05.728Z,24.6
2017-11-24T08:16:08.337Z,24.6
2017-11-24T08:17:05.763Z,24.6
2017-11-24T08:18:08.836Z,24.6
2017-11-24T08:19:05.962Z,24.6
2017-11-24T08:20:06.016Z,24.5
2017-11-24T08:21:06.005Z,24.6
2017-11-24T08:22:08.694Z,24.6
2017-11-24T08:23:06.225Z,24.7
2017-11-24T08:24:08.801Z,24.7
2017-11-24T08:25:05.964Z,24.8
2017-11-24T08:26:05.943Z,24.8
2017-11-24T08:27:06.059Z,24.8
2017-11-24T08:28:06.351Z,24.8
2017-11-24T08:29:09.319Z,24.9
2017-11-24T08:30:06.455Z,24.9
2017-11-24T08:31:06.414Z,24.9
2017-11-24T08:32:06.227Z,24.9
2017-11-24T08:33:09.515Z,24.9
2017-11-24T08:34:09.520Z,24.9
2017-11-24T08:35:09.424Z,25
2017-11-24T08:36:10.454Z,25
2017-11-24T08:37:09.625Z,25.1
2017-11-24T08:38:10.004Z,25.1
2017-11-24T08:39:09.739Z,25.1
2017-11-24T08:40:09.807Z,25.1
2017-11-24T08:41:07.302Z,25
2017-11-24T08:42:11.717Z,24.9
2017-11-24T08:43:11.486Z,24.8
2017-11-24T08:44:10.276Z,24.7
2017-11-24T08:45:09.926Z,24.6
2017-11-24T08:46:07.391Z,24.5
2017-11-24T08:47:07.473Z,24.4
2017-11-24T08:48:10.455Z,24.3
2017-11-24T08:49:07.578Z,24.2
2017-11-24T08:50:10.219Z,24.1
2017-11-24T08:51:10.211Z,24.1
2017-11-24T08:52:07.346Z,24.1
2017-11-24T08:53:10.686Z,24
2017-11-24T08:54:10.651Z,24
2017-11-24T08:55:07.746Z,24
2017-11-24T08:56:10.782Z,24
2017-11-24T08:57:10.927Z,23.9
2017-11-24T08:58:08.206Z,23.9
2017-11-24T08:59:08.211Z,23.9
2017-11-24T09:00:10.904Z,23.9
2017-11-24T09:01:10.790Z,23.9
2017-11-24T09:02:07.892Z,23.9
2017-11-24T09:03:11.191Z,23.9
2017-11-24T09:04:08.555Z,23.8
2017-11-24T09:05:08.411Z,23.8
2017-11-24T09:06:07.988Z,23.7
2017-11-24T09:07:11.387Z,23.8
2017-11-24T09:08:11.857Z,23.8
2017-11-24T09:09:08.251Z,23.9
2017-11-24T09:10:11.518Z,23.9
2017-11-24T09:11:08.358Z,23.9
2017-11-24T09:12:11.335Z,23.9
2017-11-24T09:13:08.341Z,24
2017-11-24T09:14:08.736Z,24
2017-11-24T09:15:08.593Z,24
2017-11-24T09:16:12.628Z,24
2017-11-24T09:17:08.595Z,24.1
2017-11-24T09:18:11.443Z,24.1
2017-11-24T09:19:09.132Z,24.2
2017-11-24T09:20:11.648Z,24.2
2017-11-24T09:21:08.841Z,24.2
2017-11-24T09:22:09.652Z,24.2
2017-11-24T09:23:09.182Z,24.3
2017-11-24T09:24:11.898Z,24.4
2017-11-24T09:25:09.234Z,24.4
2017-11-24T09:26:12.213Z,24.6
2017-11-24T09:27:12.352Z,24.8
2017-11-24T09:28:09.120Z,25.1
2017-11-24T09:29:11.966Z,25.3
2017-11-24T09:30:12.054Z,25.3
2017-11-24T09:31:09.210Z,25.4
2017-11-24T09:32:09.257Z,25.4
2017-11-24T09:33:09.634Z,25.4
2017-11-24T09:34:09.616Z,25.3
2017-11-24T09:35:09.582Z,25.3
2017-11-24T09:36:09.711Z,25.2
2017-11-24T09:37:12.480Z,25.1
2017-11-24T09:38:13.043Z,25
2017-11-24T09:39:12.495Z,25
2017-11-24T09:40:09.862Z,24.9
2017-11-24T09:41:12.897Z,24.9
2017-11-24T09:42:09.944Z,24.8
2017-11-24T09:43:13.583Z,24.9
2017-11-24T09:44:12.686Z,24.9
2017-11-24T09:45:12.781Z,24.8
2017-11-24T09:46:12.728Z,24.8
2017-11-24T09:47:12.748Z,24.7
2017-11-24T09:48:09.946Z,24.7
2017-11-24T09:49:10.478Z,24.7
2017-11-24T09:50:13.368Z,24.6
2017-11-24T09:51:10.171Z,24.5
2017-11-24T09:52:13.033Z,24.5
2017-11-24T09:53:13.216Z,24.4
2017-11-24T09:54:10.253Z,24.3
2017-11-24T09:55:10.596Z,24.2
2017-11-24T09:56:14.183Z,24.1
2017-11-24T09:57:10.377Z,24
2017-11-24T09:58:13.680Z,24
2017-11-24T09:59:17.254Z,23.9
2017-11-24T10:00:10.625Z,23.9
2017-11-24T10:01:10.821Z,23.8
2017-11-24T10:02:13.399Z,23.7
2017-11-24T10:03:10.515Z,23.6
2017-11-24T10:04:13.865Z,23.6
2017-11-24T10:05:10.694Z,23.6
2017-11-24T10:06:10.918Z,23.6
2017-11-24T10:07:13.577Z,23.5
2017-11-24T10:08:13.617Z,23.5
2017-11-24T10:09:13.716Z,23.5
2017-11-24T10:10:13.810Z,23.5
2017-11-24T10:11:11.183Z,23.5
2017-11-24T10:12:11.345Z,23.5
2017-11-24T10:13:11.190Z,23.4
2017-11-24T10:14:14.474Z,23.4
2017-11-24T10:15:15.319Z,23.3
2017-11-24T10:16:15.029Z,23.3
2017-11-24T10:17:14.662Z,23.3
2017-11-24T10:18:14.229Z,23.3
2017-11-24T10:19:14.215Z,23.3
2017-11-24T10:20:14.644Z,23.3
2017-11-24T10:21:14.725Z,23.4
2017-11-24T10:22:11.838Z,23.4
2017-11-24T10:23:16.656Z,23.3
2017-11-24T10:24:16.368Z,23.4
2017-11-24T10:25:15.226Z,23.4
2017-11-24T10:26:17.030Z,23.5
2017-11-24T10:27:12.949Z,23.7
2017-11-24T10:28:15.843Z,23.9
2017-11-24T10:29:12.638Z,24.2
2017-11-24T10:30:16.013Z,24.5
2017-11-24T10:31:12.026Z,24.8
2017-11-24T10:32:14.983Z,25
2017-11-24T10:33:12.599Z,25.2
2017-11-24T10:34:12.537Z,25.5
2017-11-24T10:35:15.071Z,25.8
2017-11-24T10:36:12.223Z,26
2017-11-24T10:37:15.207Z,26.2
2017-11-24T10:38:15.644Z,26.4
2017-11-24T10:39:14.146Z,26.5
2017-11-24T10:40:13.205Z,26.7
2017-11-24T10:41:17.076Z,26.8
2017-11-24T10:42:15.944Z,26.9
2017-11-24T10:43:16.369Z,27
2017-11-24T10:44:14.238Z,27.1
2017-11-24T10:45:15.929Z,27.2
2017-11-24T10:46:13.517Z,27.4
2017-11-24T10:47:15.148Z,27.4
2017-11-24T10:48:18.512Z,27.5
2017-11-24T10:49:16.535Z,27.6
2017-11-24T10:50:16.019Z,27.7
2017-11-24T10:51:18.678Z,27.7
2017-11-24T10:52:17.978Z,27.8
2017-11-24T10:53:13.613Z,27.8
2017-11-24T10:54:13.430Z,27.9
2017-11-24T10:55:16.185Z,28
2017-11-24T10:56:19.720Z,28
2017-11-24T10:57:16.129Z,28.1
2017-11-24T10:58:16.676Z,28.1
2017-11-24T10:59:13.305Z,28.1
2017-11-24T11:00:13.791Z,28.2
2017-11-24T11:01:14.176Z,28.3
2017-11-24T11:02:13.594Z,28.3
2017-11-24T11:03:13.299Z,28.3
2017-11-24T11:04:16.616Z,28.4
2017-11-24T11:05:16.566Z,28.4
2017-11-24T11:06:13.717Z,28.4
2017-11-24T11:07:16.757Z,28.5
2017-11-24T11:08:13.879Z,28.5
2017-11-24T11:09:13.967Z,28.6
2017-11-24T11:10:16.526Z,28.5
2017-11-24T11:11:16.896Z,28.6
2017-11-24T11:12:14.019Z,28.6
2017-11-24T11:13:14.136Z,28.6
2017-11-24T11:14:17.706Z,28.6
2017-11-24T11:15:16.848Z,28.7
2017-11-24T11:16:13.978Z,28.8
2017-11-24T11:17:14.271Z,28.8
2017-11-24T11:18:14.133Z,28.8
2017-11-24T11:19:17.047Z,28.9
2017-11-24T11:20:14.112Z,28.9
2017-11-24T11:21:17.318Z,28.9
2017-11-24T11:22:17.137Z,28.9
2017-11-24T11:23:17.251Z,29
2017-11-24T11:24:17.627Z,29
2017-11-24T11:25:17.667Z,29
2017-11-24T11:26:17.830Z,29
2017-11-24T11:27:17.841Z,29
2017-11-24T11:28:14.771Z,29
2017-11-24T11:29:15.352Z,29
2017-11-24T11:30:18.150Z,29
2017-11-24T11:31:14.802Z,29.1
2017-11-24T11:32:18.300Z,29.1
2017-11-24T11:33:18.116Z,29.1
2017-11-24T11:34:18.249Z,29.2
2017-11-24T11:35:18.329Z,29.2
2017-11-24T11:36:17.984Z,29.2
2017-11-24T11:37:15.668Z,29.3
2017-11-24T11:38:18.230Z,29.3
2017-11-24T11:39:18.268Z,29.3
2017-11-24T11:40:18.326Z,29.4
2017-11-24T11:41:18.664Z,29.4
2017-11-24T11:42:18.332Z,29.4
2017-11-24T11:43:18.823Z,29.4
2017-11-24T11:44:18.788Z,29.5
2017-11-24T11:45:18.984Z,29.5
2017-11-24T11:46:15.716Z,29.4
2017-11-24T11:47:16.005Z,29.5
2017-11-24T11:48:18.640Z,29.5
2017-11-24T11:49:15.817Z,29.5
2017-11-24T11:50:18.997Z,29.5
2017-11-24T11:51:15.873Z,29.5
2017-11-24T11:52:19.135Z,29.5
2017-11-24T11:53:15.878Z,29.5
2017-11-24T11:54:19.019Z,29.5
2017-11-24T11:55:16.041Z,29.5
2017-11-24T11:56:16.449Z,29.6
2017-11-24T11:57:16.175Z,29.6
2017-11-24T11:58:16.660Z,29.6
2017-11-24T11:59:19.487Z,29.6
2017-11-24T12:00:17.199Z,29.5
2017-11-24T12:01:20.405Z,29.5
2017-11-24T12:02:19.845Z,29.6
2017-11-24T12:03:19.241Z,29.6
2017-11-24T12:04:16.721Z,29.6
2017-11-24T12:05:21.457Z,29.6
2017-11-24T12:06:17.159Z,29.6
2017-11-24T12:07:19.782Z,29.7
2017-11-24T12:08:17.222Z,29.7
2017-11-24T12:09:16.718Z,29.7
2017-11-24T12:10:17.176Z,29.8
2017-11-24T12:11:20.307Z,29.8
2017-11-24T12:12:19.856Z,29.8
2017-11-24T12:13:20.497Z,29.8
2017-11-24T12:14:17.430Z,29.9
2017-11-24T12:15:19.997Z,29.9
2017-11-24T12:16:17.230Z,29.9
2017-11-24T12:17:20.368Z,29.9
2017-11-24T12:18:20.182Z,29.9
2017-11-24T12:19:20.423Z,29.9
2017-11-24T12:20:20.293Z,29.9
2017-11-24T12:21:20.632Z,29.9
2017-11-24T12:22:17.448Z,29.9
2017-11-24T12:23:20.707Z,29.9
2017-11-24T12:24:17.606Z,29.9
2017-11-24T12:25:17.835Z,29.9
2017-11-24T12:26:17.720Z,29.9
2017-11-24T12:27:21.009Z,29.9
2017-11-24T12:28:20.703Z,29.9
2017-11-24T12:29:21.102Z,29.9
2017-11-24T12:30:17.857Z,29.9
2017-11-24T12:31:18.401Z,29.9
2017-11-24T12:32:21.471Z,29.9
2017-11-24T12:33:21.221Z,29.9
2017-11-24T12:34:18.059Z,29.9
2017-11-24T12:35:21.104Z,29.8
2017-11-24T12:36:21.082Z,29.8
2017-11-24T12:37:21.640Z,29.8
2017-11-24T12:38:21.331Z,29.8
2017-11-24T12:39:21.062Z,29.8
2017-11-24T12:40:18.485Z,29.8
2017-11-24T12:41:21.173Z,29.7
2017-11-24T12:42:21.637Z,29.7
2017-11-24T12:43:21.789Z,29.6
2017-11-24T12:44:18.482Z,29.6
2017-11-24T12:45:21.445Z,29.6
2017-11-24T12:46:21.798Z,29.6
2017-11-24T12:47:21.896Z,29.6
2017-11-24T12:48:21.585Z,29.6
2017-11-24T12:49:19.216Z,29.6
2017-11-24T12:50:21.769Z,29.6
2017-11-24T12:51:22.263Z,29.6
2017-11-24T12:52:19.388Z,29.6
2017-11-24T12:53:19.214Z,29.6
2017-11-24T12:54:19.251Z,29.6
2017-11-24T12:55:18.957Z,29.6
2017-11-24T12:56:18.988Z,29.6
2017-11-24T12:57:19.248Z,29.6
2017-11-24T12:58:19.113Z,29.6
2017-11-24T12:59:22.320Z,29.6
2017-11-24T13:00:22.407Z,29.7
2017-11-24T13:01:22.444Z,29.6
2017-11-24T13:02:22.228Z,29.7
2017-11-24T13:03:22.531Z,29.7
2017-11-24T13:04:22.690Z,29.7
2017-11-24T13:05:19.787Z,29.7
2017-11-24T13:06:22.984Z,29.6
2017-11-24T13:07:19.905Z,29.7
2017-11-24T13:08:23.250Z,29.6
2017-11-24T13:09:19.707Z,29.7
2017-11-24T13:10:22.610Z,29.7
2017-11-24T13:11:19.732Z,29.7
2017-11-24T13:12:22.905Z,29.7
2017-11-24T13:13:23.216Z,29.7
2017-11-24T13:14:20.499Z,29.7
2017-11-24T13:15:19.925Z,29.7
2017-11-24T13:16:20.445Z,29.7
2017-11-24T13:17:24.426Z,29.7
2017-11-24T13:18:23.035Z,29.8
2017-11-24T13:19:23.765Z,29.8
2017-11-24T13:20:23.291Z,29.8
2017-11-24T13:21:20.348Z,29.8
2017-11-24T13:22:20.707Z,29.8
2017-11-24T13:23:20.798Z,29.8
2017-11-24T13:24:24.278Z,29.8
2017-11-24T13:25:20.828Z,29.8